Middleton, Idaho
Current Conditions -  °F | °C
As of 6:35 PM on Monday 22 Dec 2014 (Local Time) from KEUL Reporting Station
Clear Clear  
Wind Chill: 34°   Ceiling: Unl
Heat Index: 39°   Visibility: 10mi
Dew Point: 25°   Wind: 8mph
Humidity: 56%   Direction: 260°W
Pressure: 30.31"   Gusts: NA
Location:  43.71°N, 116.62°W
Report Text: KEUL 230135Z AUTO 26007KT 10SM CLR 04/M04 A3031 RMK AO1
Loading
Personal Weather Stations






























Interactive Weather Map New forecast layout! Learn more

10-Day Weather Forecast

Advertisements
Track Severe Weather on mobile